Time;durP1;ratioP1;P1;durP2;ratioP2;P2;SDS_P1;SDS_P2;PMS_P1;PMS_P2;Temp;Humidity;BMP_temperature;BMP_pressure;BME280_temperature;BME280_humidity;BME280_pressure;Samples;Min_cycle;Max_cycle;Signal;HPM_P1;HPM_P2
2022/07/27 00:01:55;;;;;;;4.03;1.45;;;;;;;14.35;89.88;100844.00;7737281;23;20024;-88
2022/07/27 00:04:57;;;;;;;4.25;1.40;;;;;;;14.37;90.42;100845.50;7735580;23;20023;-88
2022/07/27 00:07:59;;;;;;;2.38;1.10;;;;;;;14.37;90.45;100839.47;7737026;23;20465;-88
2022/07/27 00:11:01;;;;;;;4.25;1.33;;;;;;;14.39;90.81;100843.59;7709959;23;20023;-88
2022/07/27 00:14:04;;;;;;;3.22;1.10;;;;;;;14.40;90.66;100841.81;7699098;23;20103;-88
2022/07/27 00:17:05;;;;;;;4.05;1.40;;;;;;;14.39;90.96;100843.59;7703592;23;20128;-87
2022/07/27 00:20:08;;;;;;;5.93;1.25;;;;;;;14.40;90.63;100842.63;7703687;23;20032;-88
2022/07/27 00:23:10;;;;;;;4.32;1.60;;;;;;;14.42;90.47;100832.88;7731264;23;20509;-87
2022/07/27 00:26:12;;;;;;;9.02;1.40;;;;;;;14.39;90.99;100833.19;7731528;23;20509;-88
2022/07/27 00:29:13;;;;;;;2.83;1.08;;;;;;;14.39;91.03;100832.34;7730011;23;20024;-87
2022/07/27 00:32:16;;;;;;;4.57;1.25;;;;;;;14.38;90.34;100831.53;7737541;23;20055;-88
2022/07/27 00:35:18;;;;;;;3.58;1.13;;;;;;;14.33;90.63;100827.69;7736731;23;20023;-87
2022/07/27 00:38:19;;;;;;;6.38;1.50;;;;;;;14.35;91.37;100821.38;7737901;23;20027;-87
2022/07/27 00:41:21;;;;;;;4.85;1.23;;;;;;;14.33;91.24;100823.28;7733706;23;20027;-87
2022/07/27 00:44:31;;;;;;;3.28;1.30;;;;;;;14.31;91.39;100813.97;7735903;23;20525;-88
2022/07/27 00:47:33;;;;;;;4.20;1.30;;;;;;;14.23;90.82;100806.84;7736066;23;20020;-88
2022/07/27 00:50:35;;;;;;;2.78;1.30;;;;;;;14.16;91.78;100813.56;7709237;23;20016;-88
2022/07/27 00:53:37;;;;;;;3.90;1.10;;;;;;;14.05;92.06;100813.72;7737162;23;20016;-88
2022/07/27 00:56:39;;;;;;;6.43;1.30;;;;;;;13.98;92.17;100809.06;7684100;23;20070;-88
2022/07/27 00:59:41;;;;;;;2.83;1.17;;;;;;;13.94;92.17;100817.28;7736507;23;20024;-88
2022/07/27 01:02:43;;;;;;;3.53;1.35;;;;;;;13.89;93.12;100815.09;7736203;23;20502;-88
2022/07/27 01:05:48;;;;;;;4.28;1.38;;;;;;;13.87;93.25;100824.00;7709415;23;20053;-87
2022/07/27 01:08:51;;;;;;;3.22;1.20;;;;;;;13.85;92.75;100824.13;7736876;23;20655;-88
2022/07/27 01:11:53;;;;;;;4.43;1.30;;;;;;;13.91;92.60;100828.78;7736832;23;20027;-87
2022/07/27 01:14:56;;;;;;;3.53;1.20;;;;;;;13.89;92.98;100828.09;7709969;23;20020;-88
2022/07/27 01:17:58;;;;;;;10.27;2.45;;;;;;;13.87;92.51;100837.81;7737909;23;20031;-87
2022/07/27 01:21:02;;;;;;;4.72;1.23;;;;;;;13.79;92.65;100835.06;7710809;23;20019;-88
2022/07/27 01:24:04;;;;;;;3.20;1.17;;;;;;;13.72;92.94;100829.56;7736597;23;20031;-87
2022/07/27 01:27:07;;;;;;;4.25;1.40;;;;;;;13.74;93.04;100825.06;7738024;23;20462;-87
2022/07/27 01:33:30;;;;;;;4.30;1.30;;;;;;;13.70;92.03;100830.66;7737053;23;20658;-87
2022/07/27 01:36:32;;;;;;;5.38;1.30;;;;;;;13.70;91.79;100828.06;7735119;23;20074;-87
2022/07/27 01:39:34;;;;;;;3.72;1.00;;;;;;;13.65;93.31;100818.06;7737597;23;20055;-87
2022/07/27 01:42:36;;;;;;;3.75;1.20;;;;;;;13.60;93.26;100820.25;7737682;23;20111;-87
2022/07/27 01:45:38;;;;;;;3.55;1.45;;;;;;;13.56;92.45;100822.28;7709883;23;20028;-87
2022/07/27 01:48:41;;;;;;;4.75;1.02;;;;;;;13.57;93.77;100828.31;7737342;23;20054;-88
2022/07/27 01:51:42;;;;;;;2.20;0.90;;;;;;;13.51;92.65;100827.03;7738454;23;20028;-88
2022/07/27 01:54:44;;;;;;;1.73;1.00;;;;;;;13.51;92.49;100829.66;7740331;23;20149;-87
2022/07/27 01:57:46;;;;;;;5.78;2.08;;;;;;;13.51;93.01;100827.03;7712227;23;20442;-87
2022/07/27 02:00:48;;;;;;;1.70;0.98;;;;;;;13.48;93.33;100829.91;7686612;23;20409;-88
2022/07/27 02:03:50;;;;;;;5.22;1.65;;;;;;;13.47;92.98;100828.28;7738900;23;20020;-87
2022/07/27 02:06:52;;;;;;;3.22;1.33;;;;;;;13.49;94.29;100822.94;7712300;23;20020;-87
2022/07/27 02:09:53;;;;;;;2.38;1.00;;;;;;;13.48;92.97;100826.50;7712429;23;20019;-87
2022/07/27 02:12:55;;;;;;;3.17;0.90;;;;;;;13.46;93.03;100818.81;7736778;23;20446;-87
2022/07/27 02:15:57;;;;;;;4.05;1.30;;;;;;;13.49;93.43;100822.94;7709899;23;20020;-87
2022/07/27 02:18:59;;;;;;;2.50;1.00;;;;;;;13.46;93.27;100813.63;7737052;23;20043;-87
2022/07/27 02:22:05;;;;;;;6.03;1.20;;;;;;;13.49;93.59;100815.13;7736377;23;20845;-87
2022/07/27 02:25:08;;;;;;;2.15;0.98;;;;;;;13.49;92.84;100820.34;7709908;23;20070;-87
2022/07/27 02:28:10;;;;;;;2.53;1.20;;;;;;;13.44;93.25;100818.16;7686550;23;20024;-87
2022/07/27 02:31:12;;;;;;;2.78;1.38;;;;;;;13.42;94.02;100814.03;7739348;23;20026;-87
2022/07/27 02:34:13;;;;;;;3.85;1.23;;;;;;;13.36;93.36;100812.78;7712158;23;20020;-87
2022/07/27 02:37:15;;;;;;;3.38;1.20;;;;;;;13.34;94.28;100819.88;7738256;23;20027;-87
2022/07/27 02:40:17;;;;;;;6.78;1.30;;;;;;;13.35;93.91;100826.75;7711610;23;20062;-87
2022/07/27 02:43:19;;;;;;;4.20;1.40;;;;;;;13.37;93.52;100824.03;7711787;23;20016;-87
2022/07/27 02:46:21;;;;;;;2.28;1.15;;;;;;;13.39;94.71;100830.72;7737745;23;20763;-88
2022/07/27 02:49:23;;;;;;;2.50;1.35;;;;;;;13.41;93.89;100828.81;7711395;23;20085;-87
2022/07/27 02:52:25;;;;;;;2.70;1.15;;;;;;;13.37;94.07;100824.84;7736393;23;20020;-87
2022/07/27 02:55:27;;;;;;;3.97;1.98;;;;;;;13.36;94.55;100828.38;7711170;23;20028;-87
2022/07/27 02:58:29;;;;;;;3.10;1.10;;;;;;;13.38;94.49;100828.25;7711551;23;20059;-87
2022/07/27 03:01:31;;;;;;;4.57;1.17;;;;;;;13.39;94.65;100825.53;7737435;23;20019;-87
2022/07/27 03:04:32;;;;;;;4.53;1.17;;;;;;;13.36;93.86;100828.38;7738319;23;20028;-87
2022/07/27 03:07:35;;;;;;;3.20;1.10;;;;;;;13.35;94.25;100817.16;7738122;23;20024;-87
2022/07/27 03:10:37;;;;;;;1.70;0.93;;;;;;;13.38;94.95;100825.66;7737986;23;20023;-87
2022/07/27 03:13:38;;;;;;;3.92;1.10;;;;;;;13.36;94.08;100828.38;7738586;23;20481;-88
2022/07/27 03:16:40;;;;;;;3.40;1.05;;;;;;;13.35;94.59;100824.16;7739093;23;20466;-87
2022/07/27 03:19:42;;;;;;;2.53;0.82;;;;;;;13.33;94.03;100821.66;7686629;23;20028;-87
2022/07/27 03:22:44;;;;;;;3.20;1.20;;;;;;;13.30;94.61;100826.31;7737636;23;20043;-87
2022/07/27 03:25:46;;;;;;;2.80;1.10;;;;;;;13.30;93.66;100823.72;7738039;23;20383;-87
2022/07/27 03:28:47;;;;;;;2.60;1.10;;;;;;;13.25;94.51;100826.66;7736824;23;20523;-87
2022/07/27 03:31:49;;;;;;;2.25;1.10;;;;;;;13.25;95.44;100823.25;7710972;23;20027;-87
2022/07/27 03:34:51;;;;;;;3.72;1.45;;;;;;;13.21;94.56;100830.47;7738639;23;20111;-87
2022/07/27 03:37:53;;;;;;;2.60;1.15;;;;;;;13.24;95.23;100835.44;7736747;23;20020;-87
2022/07/27 03:40:55;;;;;;;4.45;1.50;;;;;;;13.21;94.96;100834.84;7737294;23;20103;-87
2022/07/27 03:43:58;;;;;;;3.70;1.10;;;;;;;13.21;94.93;100835.69;7737394;23;20027;-87
2022/07/27 03:47:00;;;;;;;2.60;1.10;;;;;;;13.20;95.42;100844.44;7735048;23;20024;-87
2022/07/27 03:50:03;;;;;;;1.90;1.00;;;;;;;13.25;95.58;100849.25;7686396;23;20043;-87
2022/07/27 03:53:04;;;;;;;2.55;1.00;;;;;;;13.28;95.45;100838.63;7738137;23;20470;-87
2022/07/27 03:56:06;;;;;;;1.42;0.93;;;;;;;13.32;95.22;100833.03;7736783;23;20513;-87
2022/07/27 03:59:08;;;;;;;3.15;1.60;;;;;;;13.40;93.68;100840.16;7737306;23;20347;-87
2022/07/27 04:02:11;;;;;;;4.18;1.10;;;;;;;13.40;95.21;100840.16;7736904;23;20340;-87
2022/07/27 04:05:13;;;;;;;8.10;1.30;;;;;;;13.41;94.93;100836.59;7737617;23;20024;-87
2022/07/27 04:08:16;;;;;;;2.88;1.10;;;;;;;13.44;94.42;100836.38;7710582;23;20024;-87
2022/07/27 04:11:18;;;;;;;2.72;1.13;;;;;;;13.40;95.68;100847.16;7686285;23;20119;-88
2022/07/27 04:14:19;;;;;;;4.47;1.40;;;;;;;13.40;94.65;100850.56;7737514;23;20424;-87
2022/07/27 04:17:21;;;;;;;3.70;1.20;;;;;;;13.44;95.07;100854.56;7737981;23;20023;-87
2022/07/27 04:20:43;;;;;;;1.48;1.00;;;;;;;13.52;94.36;100846.09;7738054;23;20451;-87
2022/07/27 04:23:45;;;;;;;5.15;1.40;;;;;;;13.57;94.64;100847.34;7738441;23;20131;-87
2022/07/27 04:26:46;;;;;;;2.28;1.10;;;;;;;13.60;94.55;100846.25;7737639;23;20482;-87
2022/07/27 04:29:48;;;;;;;3.05;1.25;;;;;;;13.60;94.37;100851.44;7708583;23;20024;-87
2022/07/27 04:32:50;;;;;;;4.07;1.10;;;;;;;13.58;94.92;100851.56;7737020;23;20540;-87
2022/07/27 04:35:52;;;;;;;2.47;1.20;;;;;;;13.61;95.41;100847.88;7686726;23;20020;-87
2022/07/27 04:38:54;;;;;;;3.03;1.30;;;;;;;13.58;95.61;100838.56;7710867;23;20107;-87
2022/07/27 04:41:56;;;;;;;2.67;1.60;;;;;;;13.55;95.18;100844.03;7736875;23;20162;-87
2022/07/27 04:44:58;;;;;;;2.25;1.30;;;;;;;13.50;95.44;100845.41;7737436;23;20357;-87
2022/07/27 04:48:05;;;;;;;3.63;1.42;;;;;;;13.45;95.96;100845.78;7685522;23;20028;-87
2022/07/27 04:51:07;;;;;;;3.42;1.40;;;;;;;13.43;97.28;100849.47;7737871;23;20238;-87
2022/07/27 04:54:10;;;;;;;2.58;1.10;;;;;;;13.40;97.72;100854.94;7710556;23;20599;-87
2022/07/27 04:57:12;;;;;;;3.72;1.30;;;;;;;13.38;97.46;100851.66;7737859;23;20027;-87
2022/07/27 05:00:14;;;;;;;6.07;1.85;;;;;;;13.40;97.34;100845.38;7736898;23;20106;-87
2022/07/27 05:03:15;;;;;;;5.22;1.27;;;;;;;13.40;98.36;100853.16;7737586;23;20387;-87
2022/07/27 05:06:19;;;;;;;2.85;1.55;;;;;;;13.39;97.93;100851.53;7737775;23;20150;-87
2022/07/27 05:09:20;;;;;;;3.67;1.38;;;;;;;13.42;99.14;100851.25;7737035;23;20020;-87
2022/07/27 05:12:23;;;;;;;6.57;1.58;;;;;;;13.47;98.36;100850.88;7709404;23;20024;-87
2022/07/27 05:15:25;;;;;;;6.15;1.60;;;;;;;13.55;98.04;100854.44;7737118;23;20077;-87
2022/07/27 05:18:27;;;;;;;2.65;2.00;;;;;;;13.63;98.34;100858.16;7737472;23;20574;-87
2022/07/27 05:21:28;;;;;;;4.15;1.60;;;;;;;13.66;97.82;100861.31;7734586;23;20373;-87
2022/07/27 05:24:30;;;;;;;7.47;1.70;;;;;;;13.66;97.53;100861.31;7737191;23;20040;-87
2022/07/27 05:27:32;;;;;;;4.65;2.25;;;;;;;13.58;99.04;100866.38;7738355;23;20021;-87
2022/07/27 05:30:34;;;;;;;4.07;1.50;;;;;;;13.55;99.15;100867.44;7740086;23;20017;-87
2022/07/27 05:33:36;;;;;;;2.42;1.40;;;;;;;13.53;99.83;100864.16;7738118;23;20446;-87
2022/07/27 05:36:38;;;;;;;6.30;1.48;;;;;;;13.54;99.63;100868.41;7737713;23;20024;-87
2022/07/27 05:39:46;;;;;;;4.32;1.92;;;;;;;13.62;99.88;100865.16;7713152;23;20351;-88
2022/07/27 05:42:48;;;;;;;3.13;1.50;;;;;;;13.64;98.65;100873.66;7713192;23;20450;-87
2022/07/27 05:45:50;;;;;;;4.60;1.67;;;;;;;13.71;98.37;100879.13;7712134;23;20056;-87
2022/07/27 05:48:52;;;;;;;6.05;1.40;;;;;;;13.72;98.66;100879.00;7712680;23;20024;-87
2022/07/27 05:51:54;;;;;;;5.03;1.60;;;;;;;13.81;97.97;100889.56;7738678;23;20442;-88
2022/07/27 05:54:56;;;;;;;2.42;1.38;;;;;;;13.84;97.86;100897.09;7712007;23;20364;-87
2022/07/27 05:57:57;;;;;;;4.40;1.70;;;;;;;13.91;97.57;100898.22;7737991;23;20681;-88
2022/07/27 06:01:00;;;;;;;2.63;1.30;;;;;;;13.95;96.50;100904.81;7710788;23;20441;-89
2022/07/27 06:04:03;;;;;;;4.85;1.90;;;;;;;14.03;96.73;100906.75;7738162;23;20020;-88
2022/07/27 06:10:27;;;;;;;4.90;1.25;;;;;;;14.08;95.93;100914.97;7739514;23;20103;-87
2022/07/27 06:13:30;;;;;;;5.30;1.50;;;;;;;14.16;96.00;100922.91;7739407;23;20019;-89
2022/07/27 06:16:32;;;;;;;3.05;1.48;;;;;;;14.25;93.99;100923.91;7711660;23;20016;-87
2022/07/27 06:19:38;;;;;;;4.07;1.38;;;;;;;14.40;93.59;100923.38;7738881;23;20016;-90
2022/07/27 06:22:48;;;;;;;5.88;1.42;;;;;;;14.35;93.10;100924.75;7687420;23;20027;-89
2022/07/27 06:25:50;;;;;;;4.75;2.20;;;;;;;14.32;92.51;100925.84;7711497;23;20150;-88
2022/07/27 06:28:57;;;;;;;2.75;1.35;;;;;;;14.42;93.00;100928.44;7739478;23;20016;-87
2022/07/27 06:31:59;;;;;;;5.40;1.50;;;;;;;14.49;92.39;100932.16;7737958;23;20027;-89
2022/07/27 06:35:02;;;;;;;2.78;1.23;;;;;;;14.48;90.85;100930.50;7711564;23;20020;-88
2022/07/27 06:38:04;;;;;;;8.02;1.20;;;;;;;14.61;89.54;100925.88;7711229;23;20027;-88
2022/07/27 06:41:06;;;;;;;5.32;1.15;;;;;;;14.60;89.86;100926.81;7738503;23;20035;-88
2022/07/27 06:44:07;;;;;;;4.93;1.35;;;;;;;14.71;87.28;100923.28;7738819;23;20028;-88
2022/07/27 06:47:09;;;;;;;3.97;1.45;;;;;;;14.71;88.39;100925.88;7738191;23;20028;-88
2022/07/27 06:50:11;;;;;;;5.28;1.50;;;;;;;14.78;88.13;100923.53;7738098;23;20020;-88
2022/07/27 06:53:13;;;;;;;7.53;1.20;;;;;;;14.90;86.54;100919.81;7738969;23;20020;-88
2022/07/27 06:56:22;;;;;;;5.75;1.10;;;;;;;14.96;84.29;100932.28;7738858;23;20027;-89
2022/07/27 06:59:25;;;;;;;5.90;1.10;;;;;;;14.96;82.31;100928.88;7738776;23;20046;-88
2022/07/27 07:03:10;;;;;;;2.67;0.80;;;;;;;15.01;81.38;100926.66;7738302;23;20051;-88
2022/07/27 07:06:12;;;;;;;1.67;1.20;;;;;;;15.13;79.58;100922.94;7705505;23;20051;-88
2022/07/27 07:09:13;;;;;;;4.60;0.90;;;;;;;15.29;77.06;100924.94;7710853;23;20027;-88
2022/07/27 07:12:17;;;;;;;5.53;1.52;;;;;;;15.34;76.14;100924.53;7710772;23;20070;-88
2022/07/27 07:15:21;;;;;;;4.30;1.10;;;;;;;15.37;74.14;100924.22;7711688;23;20075;-90
2022/07/27 07:18:23;;;;;;;2.28;0.77;;;;;;;15.34;71.99;100920.13;7686842;23;20016;-89
2022/07/27 07:21:24;;;;;;;2.38;0.70;;;;;;;15.41;71.57;100925.59;7736847;23;20047;-89
2022/07/27 07:24:28;;;;;;;4.25;0.98;;;;;;;15.59;73.10;100930.88;7735939;23;20695;-88
2022/07/27 07:27:30;;;;;;;3.78;0.90;;;;;;;15.77;70.97;100926.56;7738445;23;20020;-88
2022/07/27 07:30:32;;;;;;;3.40;0.77;;;;;;;15.90;69.76;100919.22;7736846;23;20027;-88
2022/07/27 07:33:34;;;;;;;2.30;0.90;;;;;;;15.91;70.90;100923.47;7737712;23;20020;-88
2022/07/27 07:36:36;;;;;;;1.60;0.77;;;;;;;16.06;70.00;100929.00;7710679;23;20028;-88
2022/07/27 07:39:38;;;;;;;3.28;1.00;;;;;;;16.15;69.96;100932.53;7738578;23;20020;-88
2022/07/27 07:42:55;;;;;;;4.05;1.00;;;;;;;16.56;68.18;100931.13;7737730;23;20020;-90
2022/07/27 07:45:57;;;;;;;1.48;0.70;;;;;;;16.97;65.97;100949.78;7705846;23;20020;-90
2022/07/27 07:48:58;;;;;;;4.93;1.23;;;;;;;16.89;65.66;100934.03;7736593;23;20458;-90
2022/07/27 07:52:01;;;;;;;6.15;0.90;;;;;;;16.97;65.50;100941.94;7711013;23;20020;-88
2022/07/27 07:55:03;;;;;;;4.57;1.10;;;;;;;17.12;65.42;100944.00;7737780;23;20024;-90
2022/07/27 07:58:05;;;;;;;4.60;0.90;;;;;;;17.10;64.51;100938.94;7734485;23;20016;-89
2022/07/27 08:01:07;;;;;;;6.38;0.90;;;;;;;17.17;62.53;100932.09;7737237;23;20023;-91
2022/07/27 08:04:09;;;;;;;5.40;0.90;;;;;;;17.25;62.74;100939.19;7709993;23;20062;-90
2022/07/27 08:07:11;;;;;;;2.88;0.82;;;;;;;17.39;62.07;100935.16;7707229;23;20024;-89
2022/07/27 08:10:14;;;;;;;2.72;0.90;;;;;;;17.84;60.72;100932.28;7736567;23;20024;-88
2022/07/27 08:13:16;;;;;;;4.47;0.90;;;;;;;18.28;59.71;100928.63;7710587;23;20024;-88
2022/07/27 08:16:22;;;;;;;2.33;0.80;;;;;;;18.23;54.45;100939.56;7713760;23;20046;-91
2022/07/27 08:19:24;;;;;;;3.72;0.82;;;;;;;18.03;55.97;100939.03;7739190;23;20016;-89
2022/07/27 08:22:26;;;;;;;1.95;0.82;;;;;;;18.26;55.38;100946.28;7737641;23;20105;-88
2022/07/27 08:25:29;;;;;;;3.85;1.30;;;;;;;18.61;55.79;100947.03;7736970;23;20030;-88
2022/07/27 08:28:31;;;;;;;3.53;1.13;;;;;;;18.54;51.22;100957.34;7712145;23;20035;-91
2022/07/27 08:31:38;;;;;;;3.30;0.70;;;;;;;18.12;52.52;100950.38;7738981;23;20023;-91
2022/07/27 08:34:55;;;;;;;2.85;0.77;;;;;;;17.99;53.17;100957.88;7715971;23;20020;-89
2022/07/27 08:37:57;;;;;;;3.47;0.85;;;;;;;18.11;53.58;100945.28;7740104;23;20095;-88
2022/07/27 08:41:01;;;;;;;3.20;0.90;;;;;;;18.28;51.42;100946.97;7710396;23;20507;-90
2022/07/27 08:44:05;;;;;;;1.98;0.63;;;;;;;18.44;50.87;100940.94;7739300;23;20082;-89
2022/07/27 08:47:12;;;;;;;1.63;0.75;;;;;;;18.56;51.84;100942.25;7737987;23;20178;-90
2022/07/27 08:50:22;;;;;;;2.05;0.75;;;;;;;18.69;51.60;100953.06;7738658;23;20086;-92
2022/07/27 08:53:24;;;;;;;4.22;0.90;;;;;;;18.46;50.63;100941.59;7737494;23;20023;-90
2022/07/27 08:56:26;;;;;;;1.60;0.65;;;;;;;18.41;49.96;100941.25;7738536;23;20114;-88
2022/07/27 08:59:28;;;;;;;1.90;0.85;;;;;;;18.17;51.70;100940.22;7738309;23;20170;-89
2022/07/27 09:02:29;;;;;;;1.83;0.60;;;;;;;18.20;49.21;100931.22;7739364;23;20498;-90
2022/07/27 09:05:39;;;;;;;3.58;0.93;;;;;;;18.49;47.16;100936.03;7741850;23;20024;-89
2022/07/27 09:08:57;;;;;;;2.05;0.57;;;;;;;19.03;46.94;100931.13;7741942;22;20020;-90
2022/07/27 09:12:08;;;;;;;3.42;0.98;;;;;;;19.58;46.13;100935.56;7741865;23;20031;-90
2022/07/27 09:15:13;;;;;;;3.83;0.73;;;;;;;19.72;45.19;100949.81;7741824;23;20725;-89
2022/07/27 09:18:26;;;;;;;4.78;1.00;;;;;;;19.95;44.38;100942.00;7713775;23;20027;-88
2022/07/27 09:21:28;;;;;;;2.35;0.73;;;;;;;20.03;43.31;100945.56;7741486;23;20464;-90
2022/07/27 09:24:30;;;;;;;2.15;0.50;;;;;;;19.82;43.50;100946.16;7741620;23;20050;-91
2022/07/27 09:27:52;;;;;;;1.38;0.47;;;;;;;19.46;43.42;100939.53;7740137;23;20504;-88
2022/07/27 09:30:54;;;;;;;3.65;0.60;;;;;;;19.99;43.54;100940.63;7739138;23;20023;-89
2022/07/27 09:33:59;;;;;;;3.05;0.90;;;;;;;20.40;42.75;100927.25;7738564;23;20020;-89
2022/07/27 09:37:02;;;;;;;2.22;0.57;;;;;;;20.39;42.16;100924.78;7740072;23;20107;-89
2022/07/27 09:40:24;;;;;;;2.38;0.60;;;;;;;19.79;43.39;100935.00;7738357;23;20030;-90
2022/07/27 09:43:27;;;;;;;2.05;0.63;;;;;;;19.54;44.45;100926.38;7739970;23;20016;-88
2022/07/27 09:46:49;;;;;;;4.32;1.02;;;;;;;20.03;43.16;100916.66;7716518;23;20020;-89
2022/07/27 09:49:52;;;;;;;2.33;0.70;;;;;;;20.70;41.69;100923.94;7710534;23;20324;-89
2022/07/27 09:53:18;;;;;;;3.33;0.80;;;;;;;20.56;41.21;100923.69;7738847;23;20537;-90
2022/07/27 09:56:40;;;;;;;1.10;0.75;;;;;;;20.23;41.86;100920.47;7711474;23;20028;-89
2022/07/27 09:59:42;;;;;;;2.35;0.70;;;;;;;19.91;42.50;100926.75;7710781;23;20024;-88
2022/07/27 10:02:44;;;;;;;2.70;0.90;;;;;;;19.80;43.04;100925.34;7740446;23;20020;-88
2022/07/27 10:05:46;;;;;;;2.00;0.80;;;;;;;20.12;43.18;100923.50;7735087;23;20020;-89
2022/07/27 10:08:51;;;;;;;1.20;0.50;;;;;;;20.57;42.71;100927.13;7735060;23;20066;-92
2022/07/27 10:11:52;;;;;;;2.53;0.60;;;;;;;20.20;41.50;100936.59;7713595;23;20052;-88
2022/07/27 10:14:54;;;;;;;2.72;0.95;;;;;;;19.77;42.45;100931.72;7740226;23;20020;-88
2022/07/27 10:18:06;;;;;;;4.05;0.80;;;;;;;19.49;42.60;100933.13;7740848;23;20030;-89
2022/07/27 10:21:10;;;;;;;1.73;0.60;;;;;;;20.09;42.64;100915.97;7741639;23;20323;-91
2022/07/27 10:24:35;;;;;;;1.23;0.70;;;;;;;20.90;41.49;100918.97;7741629;23;20039;-91
2022/07/27 10:27:37;;;;;;;2.75;1.00;;;;;;;21.26;41.24;100919.88;7740308;23;20016;-89
2022/07/27 10:30:39;;;;;;;6.55;1.27;;;;;;;21.27;40.54;100918.09;7712773;23;20039;-91
2022/07/27 10:34:07;;;;;;;2.20;0.70;;;;;;;21.11;40.69;100929.59;7689467;23;20025;-90
2022/07/27 10:37:23;;;;;;;2.10;0.80;;;;;;;21.01;39.29;100918.53;7736832;23;20028;-89
2022/07/27 10:40:34;;;;;;;4.30;1.00;;;;;;;20.77;39.38;100915.16;7713189;23;20131;-89
2022/07/27 10:43:36;;;;;;;1.38;0.55;;;;;;;20.85;40.17;100907.16;7689359;23;20489;-89
2022/07/27 10:46:42;;;;;;;1.67;0.73;;;;;;;21.62;39.67;100911.28;7740948;23;20024;-90
2022/07/27 10:49:44;;;;;;;3.58;0.98;;;;;;;21.80;38.96;100917.97;7728429;23;20012;-90
2022/07/27 10:52:49;;;;;;;2.45;0.77;;;;;;;21.78;38.40;100925.25;7713342;23;20328;-90
2022/07/27 10:55:51;;;;;;;1.20;0.65;;;;;;;21.67;37.35;100927.34;7740768;23;20036;-90
2022/07/27 10:58:53;;;;;;;2.63;0.77;;;;;;;21.60;37.61;100925.66;7739340;23;20020;-90
2022/07/27 11:01:57;;;;;;;2.33;0.73;;;;;;;21.66;37.80;100924.91;7713653;23;20016;-91
2022/07/27 11:05:03;;;;;;;2.63;0.82;;;;;;;21.91;38.66;100926.22;7713650;23;20012;-89
2022/07/27 11:08:04;;;;;;;2.05;0.80;;;;;;;21.91;39.79;100925.38;7741830;23;20016;-91
2022/07/27 11:11:27;;;;;;;2.67;1.08;;;;;;;21.97;38.79;100935.19;7741636;23;20510;-90
2022/07/27 11:14:29;;;;;;;2.72;0.90;;;;;;;22.19;38.95;100922.88;7741220;23;20345;-93
2022/07/27 11:17:35;;;;;;;2.75;0.80;;;;;;;22.33;39.78;100929.94;7714064;23;20508;-91
2022/07/27 11:21:16;;;;;;;3.45;1.00;;;;;;;22.47;38.80;100936.13;7740901;23;20028;-93
2022/07/27 11:24:26;;;;;;;3.28;0.68;;;;;;;22.43;38.88;100936.69;7741074;23;20214;-91
2022/07/27 11:27:28;;;;;;;4.85;0.90;;;;;;;22.84;38.39;100920.19;7713892;23;20028;-92
2022/07/27 11:30:30;;;;;;;2.15;0.75;;;;;;;22.94;37.50;100931.22;7739522;23;20035;-90
2022/07/27 11:33:35;;;;;;;3.97;1.00;;;;;;;22.34;38.84;100942.09;7741006;23;20024;-90
2022/07/27 11:36:40;;;;;;;3.55;1.02;;;;;;;21.65;40.37;100937.25;7740554;23;20367;-91
2022/07/27 11:39:42;;;;;;;3.45;0.80;;;;;;;21.33;40.81;100942.88;7741103;23;20462;-91
2022/07/27 11:43:01;;;;;;;2.00;0.85;;;;;;;21.09;41.55;100936.84;7714107;23;20024;-92
2022/07/27 11:46:21;;;;;;;5.38;1.17;;;;;;;20.79;41.16;100934.19;7740932;23;20925;-91
2022/07/27 11:49:27;;;;;;;;;;;;;;;20.64;41.82;100936.81;7742230;23;20026;-92
2022/07/27 11:52:29;;;;;;;1.02;0.70;;;;;;;20.76;40.61;100929.28;7738688;23;19997;-91
2022/07/27 11:55:31;;;;;;;2.38;0.82;;;;;;;21.64;38.66;100925.09;7740660;23;20026;-91
2022/07/27 11:58:33;;;;;;;3.42;0.70;;;;;;;22.44;37.30;100920.69;7712533;23;20020;-91
2022/07/27 12:01:42;;;;;;;5.20;1.10;;;;;;;22.77;36.05;100922.78;7712529;23;20027;-91
2022/07/27 12:04:54;;;;;;;2.05;0.90;;;;;;;22.65;36.66;100925.13;7713402;23;20462;-92
2022/07/27 12:08:05;;;;;;;3.05;0.82;;;;;;;22.82;36.59;100923.00;7741836;23;20334;-90
2022/07/27 12:11:07;;;;;;;1.90;0.68;;;;;;;23.00;36.20;100927.84;7741743;23;20023;-91
2022/07/27 12:14:13;;;;;;;3.17;0.80;;;;;;;22.99;36.77;100924.38;7714236;23;20024;-90
2022/07/27 12:17:35;;;;;;;5.25;0.98;;;;;;;22.86;36.18;100926.09;7740672;23;20026;-90
2022/07/27 12:20:37;;;;;;;2.90;0.85;;;;;;;22.62;36.94;100922.06;7740846;23;20577;-91
2022/07/27 12:23:56;;;;;;;1.92;0.63;;;;;;;22.72;37.34;100930.44;7714665;23;20469;-91
2022/07/27 12:27:13;;;;;;;1.80;0.75;;;;;;;22.50;37.85;100919.91;7740652;23;20024;-90
2022/07/27 12:30:15;;;;;;;3.35;0.90;;;;;;;;;;7712402;23;20117;-94
2022/07/27 12:33:35;;;;;;;4.80;1.27;;;;;;;22.34;39.31;100925.47;7737216;23;20268;-91
2022/07/27 12:36:40;;;;;;;1.67;0.77;;;;;;;22.57;37.54;100923.44;7736888;23;20145;-90
2022/07/27 12:39:44;;;;;;;4.00;0.80;;;;;;;22.92;37.46;100920.03;7738703;23;20020;-92
2022/07/27 12:42:55;;;;;;;1.10;0.98;;;;;;;23.18;37.13;100922.06;7713284;23;20420;-91
2022/07/27 12:45:57;;;;;;;4.28;0.93;;;;;;;23.27;35.86;100925.38;7713745;23;20028;-95
2022/07/27 12:49:00;;;;;;;2.47;1.13;;;;;;;23.16;35.41;100929.38;7737396;23;20025;-94
2022/07/27 12:52:09;;;;;;;4.00;0.80;;;;;;;23.10;36.85;100916.94;7739356;23;20028;-92
2022/07/27 12:55:12;;;;;;;1.52;0.60;;;;;;;23.65;36.72;100918.63;7740069;23;20398;-91
2022/07/27 12:58:16;;;;;;;2.10;0.70;;;;;;;24.21;34.95;100907.00;7712987;23;20155;-95
2022/07/27 13:01:18;;;;;;;3.28;1.00;;;;;;;24.28;34.57;100912.31;7742238;23;20028;-93
2022/07/27 13:04:20;;;;;;;5.47;0.80;;;;;;;24.74;34.49;100922.09;7712992;23;20070;-93
2022/07/27 13:07:22;;;;;;;5.72;1.00;;;;;;;25.15;33.85;100913.06;7742235;23;20027;-93
2022/07/27 13:10:24;;;;;;;3.22;1.00;;;;;;;24.88;33.14;100915.78;7741671;23;20020;-92
2022/07/27 13:13:26;;;;;;;3.13;0.90;;;;;;;25.34;33.36;100912.25;7740389;23;20084;-95
2022/07/27 13:16:27;;;;;;;3.40;0.90;;;;;;;25.75;33.28;100912.88;7741301;23;20541;-92
2022/07/27 13:19:30;;;;;;;3.72;0.85;;;;;;;25.97;32.57;100911.56;7742433;23;20016;-93
2022/07/27 13:22:31;;;;;;;1.25;0.80;;;;;;;25.99;32.77;100914.81;7739076;23;20454;-92
2022/07/27 13:25:33;;;;;;;2.50;1.23;;;;;;;26.00;33.45;100908.47;7713404;23;20079;-91
2022/07/27 13:28:41;;;;;;;3.63;0.80;;;;;;;26.05;33.02;100907.03;7739959;23;20020;-94
2022/07/27 13:31:44;;;;;;;2.53;0.80;;;;;;;25.85;32.95;100907.94;7739699;23;20055;-93
2022/07/27 13:34:55;;;;;;;3.78;0.70;;;;;;;25.41;33.98;100900.78;7740410;23;20027;-93
2022/07/27 13:37:57;;;;;;;2.47;0.70;;;;;;;25.51;33.94;100894.00;7739479;23;20403;-93
2022/07/27 13:40:59;;;;;;;3.10;0.70;;;;;;;25.75;32.07;100907.56;7740642;23;20016;-92
2022/07/27 13:44:02;;;;;;;2.72;0.70;;;;;;;25.09;33.92;100898.84;7740143;23;20020;-91
2022/07/27 13:47:05;;;;;;;2.90;0.88;;;;;;;25.01;35.05;100906.19;7740676;23;20020;-93
2022/07/27 13:50:09;;;;;;;5.18;0.82;;;;;;;24.93;34.68;100915.97;7747578;23;20020;-94
2022/07/27 13:53:20;;;;;;;3.58;0.80;;;;;;;25.10;33.97;100902.28;7743794;23;20402;-93
2022/07/27 13:56:21;;;;;;;0.60;0.52;;;;;;;25.62;32.70;100900.50;7715728;23;20020;-93
2022/07/27 13:59:24;;;;;;;2.92;0.90;;;;;;;26.23;32.22;100906.28;7745375;23;20158;-95
2022/07/27 14:02:26;;;;;;;4.82;0.80;;;;;;;27.07;31.19;100905.75;7715516;23;20020;-92
2022/07/27 14:05:28;;;;;;;2.40;0.55;;;;;;;27.40;30.75;100903.75;7742591;23;20027;-93
2022/07/27 14:08:32;;;;;;;4.05;1.75;;;;;;;27.46;30.32;100908.19;7740772;23;20026;-96
2022/07/27 14:11:34;;;;;;;1.95;0.70;;;;;;;27.58;29.75;100901.09;7716097;23;20024;-95
2022/07/27 14:14:36;;;;;;;1.70;0.80;;;;;;;27.41;31.25;100887.59;7741935;23;20488;-94
2022/07/27 14:17:38;;;;;;;2.80;0.73;;;;;;;27.52;30.49;100904.63;7742904;23;20524;-94
2022/07/27 14:20:41;;;;;;;2.60;0.80;;;;;;;26.67;30.85;100902.69;7741479;23;20016;-95
2022/07/27 14:23:43;;;;;;;3.15;0.90;;;;;;;26.21;31.89;100890.59;7742002;23;20024;-94
2022/07/27 14:26:45;;;;;;;2.55;0.82;;;;;;;26.19;31.98;100888.13;7742465;23;20016;-94